NCAR-RAP Real-Time Weather Data

Output produced by METARs form (16 August 2018  19:23 UTC)
found at http://weather.rap.ucar.edu/surface/
 
Conditions at: KFMY observed 16 August 2018  18:53 UTC
Temperature: 33.9°C (93°F)
Dewpoint: 20.0°C (68°F) [RH = 44%]
Pressure (altimeter): 30.11 inches Hg (1019.7 mb)
[Sea-level pressure: 1019.8 mb]
Winds: variable direction winds at 6 MPH (5 knots; 2.6 m/s)
Visibility: 10 or more miles (16+ km)
Ceiling: at least 12,000 feet AGL
Clouds: sky clear below 12,000 feet AGL
Present Weather: no significant weather observed at this time
KFMY 161853Z VRB05KT 10SM CLR 34/20 A3011 RMK AO2 SLP198 T03390200

Conditions at: KFMY observed 16 August 2018  17:53 UTC
Temperature: 32.2°C (90°F)
Dewpoint: 21.1°C (70°F) [RH = 52%]
Pressure (altimeter): 30.13 inches Hg (1020.4 mb)
[Sea-level pressure: 1020.5 mb]
Winds: from the S (170 degrees) at 5 MPH (4 knots; 2.1 m/s)
Visibility: 10 or more miles (16+ km)
Ceiling: at least 12,000 feet AGL
Clouds: few clouds at 4200 feet AGL
scattered clouds at 6000 feet AGL
scattered clouds at 8500 feet AGL
Present Weather: no significant weather observed at this time
KFMY 161753Z 17004KT 10SM FEW042 SCT060 SCT085 32/21 A3013 RMK AO2 SLP205 T03220211 10328 20244 58003

Conditions at: KFMY observed 16 August 2018  16:53 UTC
Temperature: 31.7°C (89°F)
Dewpoint: 22.8°C (73°F) [RH = 59%]
Pressure (altimeter): 30.14 inches Hg (1020.7 mb)
[Sea-level pressure: 1020.6 mb]
Winds: from the SE (130 degrees) at 8 MPH (7 knots; 3.6 m/s)
Visibility: 10 or more miles (16+ km)
Ceiling: at least 12,000 feet AGL
Clouds: few clouds at 3800 feet AGL
Present Weather: no significant weather observed at this time
KFMY 161653Z 13007KT 10SM FEW038 32/23 A3014 RMK AO2 SLP206 T03170228

Conditions at: KFMY observed 16 August 2018  15:53 UTC
Temperature: 31.1°C (88°F)
Dewpoint: 22.8°C (73°F) [RH = 61%]
Pressure (altimeter): 30.14 inches Hg (1020.7 mb)
[Sea-level pressure: 1020.9 mb]
Winds: from the ESE (110 degrees) at 14 MPH (12 knots; 6.2 m/s)
Visibility: 10 or more miles (16+ km)
Ceiling: at least 12,000 feet AGL
Clouds: few clouds at 3300 feet AGL
Present Weather: no significant weather observed at this time
KFMY 161553Z 11012KT 10SM FEW033 31/23 A3014 RMK AO2 SLP209 T03110228

Conditions at: KFMY observed 16 August 2018  14:53 UTC
Temperature: 30.0°C (86°F)
Dewpoint: 22.8°C (73°F) [RH = 65%]
Pressure (altimeter): 30.14 inches Hg (1020.7 mb)
[Sea-level pressure: 1020.8 mb]
Winds: from the SE (140 degrees) at 13 MPH (11 knots; 5.7 m/s)
Visibility: 10 or more miles (16+ km)
Ceiling: at least 12,000 feet AGL
Clouds: sky clear below 12,000 feet AGL
Present Weather: no significant weather observed at this time
KFMY 161453Z 14011KT 10SM CLR 30/23 A3014 RMK AO2 SLP208 T03000228 53004

Conditions at: KFMY observed 16 August 2018  13:53 UTC
Temperature: 28.9°C (84°F)
Dewpoint: 23.9°C (75°F) [RH = 74%]
Pressure (altimeter): 30.14 inches Hg (1020.7 mb)
[Sea-level pressure: 1020.7 mb]
Winds: from the ESE (110 degrees) at 10 MPH (9 knots; 4.7 m/s)
Visibility: 10 or more miles (16+ km)
Ceiling: at least 12,000 feet AGL
Clouds: sky clear below 12,000 feet AGL
Present Weather: no significant weather observed at this time
KFMY 161353Z 11009KT 10SM CLR 29/24 A3014 RMK AO2 SLP207 T02890239

Conditions at: KFMY observed 16 August 2018  12:53 UTC
Temperature: 26.7°C (80°F)
Dewpoint: 24.4°C (76°F) [RH = 87%]
Pressure (altimeter): 30.13 inches Hg (1020.4 mb)
[Sea-level pressure: 1020.4 mb]
Winds: from the E (90 degrees) at 7 MPH (6 knots; 3.1 m/s)
Visibility: 10 or more miles (16+ km)
Ceiling: at least 12,000 feet AGL
Clouds: sky clear below 12,000 feet AGL
Present Weather: no significant weather observed at this time
KFMY 161253Z 09006KT 10SM CLR 27/24 A3013 RMK AO2 SLP204 T02670244

Conditions at: KFMY observed 16 August 2018  11:53 UTC
Temperature: 24.4°C (76°F)
Dewpoint: 23.9°C (75°F) [RH = 97%]
Pressure (altimeter): 30.13 inches Hg (1020.4 mb)
[Sea-level pressure: 1020.5 mb]
Winds: calm
Visibility: 10 or more miles (16+ km)
Ceiling: at least 12,000 feet AGL
Clouds: sky clear below 12,000 feet AGL
Present Weather: no significant weather observed at this time
KFMY 161153Z 00000KT 10SM CLR 24/24 A3013 RMK AO2 SLP205 70024 T02440239 10244 20233 53018

Conditions at: KFMY observed 16 August 2018  10:53 UTC
Temperature: 23.3°C (74°F)
Dewpoint: 23.3°C (74°F) [RH = 100%]
Pressure (altimeter): 30.10 inches Hg (1019.4 mb)
[Sea-level pressure: 1019.6 mb]
Winds: calm
Visibility: 10 or more miles (16+ km)
Ceiling: at least 12,000 feet AGL
Clouds: sky clear below 12,000 feet AGL
Present Weather: no significant weather observed at this time
KFMY 161053Z 00000KT 10SM CLR 23/23 A3010 RMK AO2 SLP196 T02330233

Conditions at: KFMY observed 16 August 2018  09:53 UTC
Temperature: 23.9°C (75°F)
Dewpoint: 22.8°C (73°F) [RH = 94%]
Pressure (altimeter): 30.08 inches Hg (1018.7 mb)
[Sea-level pressure: 1018.7 mb]
Winds: from the ENE (60 degrees) at 7 MPH (6 knots; 3.1 m/s)
Visibility: 10 or more miles (16+ km)
Ceiling: at least 12,000 feet AGL
Clouds: sky clear below 12,000 feet AGL
Present Weather:
SOME DATA ABOVE MAY BE INACCURATE!!!
"$" is an indication the sensor requires maintenance
KFMY 160953Z AUTO 06006KT 10SM CLR 24/23 A3008 RMK AO2 SLP187 T02390228 $

Conditions at: KFMY observed 16 August 2018  08:53 UTC
Temperature: 23.9°C (75°F)
Dewpoint: 22.8°C (73°F) [RH = 94%]
Pressure (altimeter): 30.08 inches Hg (1018.7 mb)
[Sea-level pressure: 1018.7 mb]
Winds: from the NE (50 degrees) at 6 MPH (5 knots; 2.6 m/s)
Visibility: 10 or more miles (16+ km)
Ceiling: at least 12,000 feet AGL
Clouds: sky clear below 12,000 feet AGL
Present Weather:
SOME DATA ABOVE MAY BE INACCURATE!!!
"$" is an indication the sensor requires maintenance
KFMY 160853Z AUTO 05005KT 10SM CLR 24/23 A3008 RMK AO2 SLP187 T02390228 56005 $

Conditions at: KFMY observed 16 August 2018  07:53 UTC
Temperature: 23.9°C (75°F)
Dewpoint: 22.8°C (73°F) [RH = 94%]
Pressure (altimeter): 30.08 inches Hg (1018.7 mb)
[Sea-level pressure: 1018.8 mb]
Winds: from the E (80 degrees) at 3 MPH (3 knots; 1.6 m/s)
Visibility: 10 or more miles (16+ km)
Ceiling: at least 12,000 feet AGL
Clouds: sky clear below 12,000 feet AGL
Present Weather:
SOME DATA ABOVE MAY BE INACCURATE!!!
"$" is an indication the sensor requires maintenance
KFMY 160753Z AUTO 08003KT 10SM CLR 24/23 A3008 RMK AO2 SLP188 T02390228 $

Conditions at: KFMY observed 16 August 2018  06:53 UTC
Temperature: 23.9°C (75°F)
Dewpoint: 22.8°C (73°F) [RH = 94%]
Pressure (altimeter): 30.08 inches Hg (1018.7 mb)
[Sea-level pressure: 1018.7 mb]
Winds: from the ENE (60 degrees) at 7 MPH (6 knots; 3.1 m/s)
Visibility: 10 or more miles (16+ km)
Ceiling: at least 12,000 feet AGL
Clouds: sky clear below 12,000 feet AGL
Present Weather:
SOME DATA ABOVE MAY BE INACCURATE!!!
"$" is an indication the sensor requires maintenance
KFMY 160653Z AUTO 06006KT 10SM CLR 24/23 A3008 RMK AO2 SLP187 T02390228 $

Conditions at: KFMY observed 16 August 2018  05:53 UTC
Temperature: 23.9°C (75°F)
Dewpoint: 22.2°C (72°F) [RH = 90%]
Pressure (altimeter): 30.09 inches Hg (1019.0 mb)
[Sea-level pressure: 1019.3 mb]
Winds: from the NE (40 degrees) at 3 MPH (3 knots; 1.6 m/s)
Visibility: 10 or more miles (16+ km)
Ceiling: at least 12,000 feet AGL
Clouds: sky clear below 12,000 feet AGL
Present Weather:
SOME DATA ABOVE MAY BE INACCURATE!!!
"$" is an indication the sensor requires maintenance
KFMY 160553Z AUTO 04003KT 10SM CLR 24/22 A3009 RMK AO2 SLP193 60004 T02390222 10272 20239 58010 $

Conditions at: KFMY observed 16 August 2018  04:53 UTC
Temperature: 23.9°C (75°F)
Dewpoint: 22.2°C (72°F) [RH = 90%]
Pressure (altimeter): 30.11 inches Hg (1019.7 mb)
[Sea-level pressure: 1019.8 mb]
Winds: from the ENE (60 degrees) at 5 MPH (4 knots; 2.1 m/s)
Visibility: 10 or more miles (16+ km)
Ceiling: at least 12,000 feet AGL
Clouds: sky clear below 12,000 feet AGL
Present Weather:
SOME DATA ABOVE MAY BE INACCURATE!!!
"$" is an indication the sensor requires maintenance
KFMY 160453Z AUTO 06004KT 10SM CLR 24/22 A3011 RMK AO2 LTG DSNT N AND NW TSE04 SLP198 T02390222 403330233 $

Conditions at: KFMY observed 16 August 2018  04:05 UTC
Temperature: 24.4°C (76°F)
Dewpoint: 21.1°C (70°F) [RH = 82%]
Pressure (altimeter): 30.13 inches Hg (1020.4 mb)
Winds: calm
Visibility: 10 or more miles (16+ km)
Ceiling: at least 12,000 feet AGL
Clouds: few clouds at 2200 feet AGL
Present Weather:
SOME DATA ABOVE MAY BE INACCURATE!!!
"$" is an indication the sensor requires maintenance
KFMY 160405Z AUTO 00000KT 10SM FEW022 24/21 A3013 RMK AO2 LTG DSNT W-N TSE04 T02440211 $

Conditions at: KFMY observed 16 August 2018  03:53 UTC
Temperature: 24.4°C (76°F)
Dewpoint: 20.6°C (69°F) [RH = 79%]
Pressure (altimeter): 30.13 inches Hg (1020.4 mb)
[Sea-level pressure: 1020.3 mb]
Winds: from the SSW (200 degrees) at 5 MPH (4 knots; 2.1 m/s)
Visibility: 10 or more miles (16+ km)
Ceiling: at least 12,000 feet AGL
Clouds: few clouds at 5500 feet AGL
few clouds at 11000 feet AGL
Present Weather: TS  (thunderstorm)
SOME DATA ABOVE MAY BE INACCURATE!!!
"$" is an indication the sensor requires maintenance
KFMY 160353Z AUTO 20004KT 10SM TS FEW055 FEW110 24/21 A3013 RMK AO2 LTG DSNT SW-N RAB06E32 TSB42 SLP203 P0004 T02440206 $

Conditions at: KFMY observed 16 August 2018  03:48 UTC
Temperature: 24.0°C (75°F)
Dewpoint: 21.0°C (70°F) [RH = 83%]
Pressure (altimeter): 30.12 inches Hg (1020.1 mb)
Winds: from the SSW (200 degrees) at 7 MPH (6 knots; 3.1 m/s)
Visibility: 10 or more miles (16+ km)
Ceiling: 11000 feet AGL
Clouds: few clouds at 3500 feet AGL
scattered clouds at 10000 feet AGL
broken clouds at 11000 feet AGL
Present Weather: TS  (thunderstorm)
SOME DATA ABOVE MAY BE INACCURATE!!!
"$" is an indication the sensor requires maintenance
KFMY 160348Z AUTO 20006KT 10SM TS FEW035 SCT100 BKN110 24/21 A3012 RMK AO2 LTG DSNT SW-N RAB06E32 TSB42 P0004 $

Conditions at: KFMY observed 16 August 2018  03:41 UTC
Temperature: 24.4°C (76°F)
Dewpoint: 20.6°C (69°F) [RH = 79%]
Pressure (altimeter): 30.13 inches Hg (1020.4 mb)
Winds: from the SSW (200 degrees) at 9 MPH (8 knots; 4.2 m/s)
Visibility: 10 or more miles (16+ km)
Ceiling: 11000 feet AGL
Clouds: few clouds at 5000 feet AGL
scattered clouds at 6500 feet AGL
broken clouds at 11000 feet AGL
Present Weather: VCTS  (thunderstorm in vicinity)
SOME DATA ABOVE MAY BE INACCURATE!!!
"$" is an indication the sensor requires maintenance
KFMY 160341Z AUTO 20008KT 10SM VCTS FEW050 SCT065 BKN110 24/21 A3013 RMK AO2 LTG DSNT S-NW RAB06E32 P0004 T02440206 $

Conditions at: KFMY observed 16 August 2018  02:53 UTC
Temperature: 25.0°C (77°F)
Dewpoint: 23.3°C (74°F) [RH = 90%]
Pressure (altimeter): 30.12 inches Hg (1020.1 mb)
[Sea-level pressure: 1020.0 mb]
Winds: from the SE (140 degrees) at 5 MPH (4 knots; 2.1 m/s)
Visibility: 10 or more miles (16+ km)
Ceiling: 4500 feet AGL
Clouds: broken clouds at 4500 feet AGL
broken clouds at 5500 feet AGL
Present Weather:
SOME DATA ABOVE MAY BE INACCURATE!!!
"$" is an indication the sensor requires maintenance
KFMY 160253Z AUTO 14004KT 10SM BKN045 BKN055 25/23 A3012 RMK AO2 LTG DSNT ALQDS SLP200 T02500233 51006 $

Conditions at: KFMY observed 16 August 2018  02:49 UTC
Temperature: 26.0°C (79°F)
Dewpoint: 24.0°C (75°F) [RH = 89%]
Pressure (altimeter): 30.11 inches Hg (1019.7 mb)
Winds: from the ENE (70 degrees) at 5 MPH (4 knots; 2.1 m/s)
Visibility: 10 or more miles (16+ km)
Ceiling: 5500 feet AGL
Clouds: scattered clouds at 4700 feet AGL
broken clouds at 5500 feet AGL
Present Weather:
SOME DATA ABOVE MAY BE INACCURATE!!!
"$" is an indication the sensor requires maintenance
KFMY 160249Z AUTO 07004KT 10SM SCT047 BKN055 26/24 A3011 RMK AO2 LTG DSNT ALQDS $

Conditions at: KFMY observed 16 August 2018  02:34 UTC
Temperature: 25.6°C (78°F)
Dewpoint: 23.3°C (74°F) [RH = 87%]
Pressure (altimeter): 30.11 inches Hg (1019.7 mb)
Winds: from the ENE (70 degrees) at 6 MPH (5 knots; 2.6 m/s)
Visibility: 10 or more miles (16+ km)
Ceiling: at least 12,000 feet AGL
Clouds: scattered clouds at 4800 feet AGL
scattered clouds at 6500 feet AGL
Present Weather: VCTS  (thunderstorm in vicinity)
SOME DATA ABOVE MAY BE INACCURATE!!!
"$" is an indication the sensor requires maintenance
KFMY 160234Z AUTO 07005KT 10SM VCTS SCT048 SCT065 26/23 A3011 RMK AO2 LTG DSNT ALQDS T02560233 $

Conditions at: KFMY observed 16 August 2018  01:53 UTC
Temperature: 26.1°C (79°F)
Dewpoint: 23.3°C (74°F) [RH = 85%]
Pressure (altimeter): 30.10 inches Hg (1019.4 mb)
[Sea-level pressure: 1019.5 mb]
Winds: from the E (90 degrees) at 8 MPH (7 knots; 3.6 m/s)
Visibility: 10 or more miles (16+ km)
Ceiling: 5000 feet AGL
Clouds: broken clouds at 5000 feet AGL
broken clouds at 6000 feet AGL
Present Weather: automated observation with no human augmentation;
there may or may not be significant weather present at this time
KFMY 160153Z AUTO 09007KT 10SM BKN050 BKN060 26/23 A3010 RMK AO2 LTG DSNT N-E SLP195 T02610233

Conditions at: KFMY observed 16 August 2018  00:53 UTC
Temperature: 26.7°C (80°F)
Dewpoint: 22.8°C (73°F) [RH = 79%]
Pressure (altimeter): 30.10 inches Hg (1019.4 mb)
[Sea-level pressure: 1019.3 mb]
Winds: from the NNE (30 degrees) at 9 MPH (8 knots; 4.2 m/s)
Visibility: 10 or more miles (16+ km)
Ceiling: at least 12,000 feet AGL
Clouds: few clouds at 5500 feet AGL
Present Weather: no significant weather observed at this time
KFMY 160053Z 03008KT 10SM FEW055 27/23 A3010 RMK AO2 LTG DSNT N-SE SLP193 T02670228

Conditions at: KFMY observed 15 August 2018  23:53 UTC
Temperature: 26.7°C (80°F)
Dewpoint: 24.4°C (76°F) [RH = 87%]
Pressure (altimeter): 30.06 inches Hg (1018.0 mb)
[Sea-level pressure: 1018.2 mb]
Winds: calm
Visibility: 10 or more miles (16+ km)
Ceiling: at least 12,000 feet AGL
Clouds: few clouds at 9000 feet AGL
Present Weather: no significant weather observed at this time
KFMY 152353Z 00000KT 10SM FEW090 27/24 A3006 RMK AO2 LTG DSNT N SLP182 60020 T02670244 10333 20250 53009

Conditions at: KFMY observed 15 August 2018  22:53 UTC
Temperature: 26.7°C (80°F)
Dewpoint: 24.4°C (76°F) [RH = 87%]
Pressure (altimeter): 30.05 inches Hg (1017.7 mb)
[Sea-level pressure: 1017.6 mb]
Winds: from the ESE (120 degrees) at 5 MPH (4 knots; 2.1 m/s)
Visibility: 10 or more miles (16+ km)
Ceiling: at least 12,000 feet AGL
Clouds: sky clear below 12,000 feet AGL
Present Weather: no significant weather observed at this time
KFMY 152253Z 12004KT 10SM CLR 27/24 A3005 RMK AO2 LTG DSNT N RAE04 SLP176 P0000 T02670244

Conditions at: KFMY observed 15 August 2018  22:40 UTC
Temperature: 26.7°C (80°F)
Dewpoint: 23.9°C (75°F) [RH = 85%]
Pressure (altimeter): 30.04 inches Hg (1017.4 mb)
Winds: from the ESE (120 degrees) at 5 MPH (4 knots; 2.1 m/s)
Visibility: 10 or more miles (16+ km)
Ceiling: at least 12,000 feet AGL
Clouds: few clouds at 8000 feet AGL
Present Weather: no significant weather observed at this time
KFMY 152240Z 12004KT 10SM FEW080 27/24 A3004 RMK AO2 LTG DSNT W-NE RAE04 P0000 T02670239

Conditions at: KFMY observed 15 August 2018  21:53 UTC
Temperature: 25.6°C (78°F)
Dewpoint: 21.7°C (71°F) [RH = 79%]
Pressure (altimeter): 30.05 inches Hg (1017.7 mb)
[Sea-level pressure: 1017.7 mb]
Winds: from the SE (140 degrees) at 10 MPH (9 knots; 4.7 m/s)
Visibility: 10 or more miles (16+ km)
Ceiling: 9500 feet AGL
Clouds: few clouds at 6000 feet AGL
broken clouds at 9500 feet AGL
broken clouds at 11000 feet AGL
Present Weather: VCTS -RA  (thunderstorm in vicinity, light rain)
KFMY 152153Z 14009KT 10SM VCTS -RA FEW060 BKN095 BKN110 26/22 A3005 RMK AO2 WSHFT 2040 LTG DSNT ALQDS TSE23 SLP177 P0007 T02560217

Conditions at: KFMY observed 15 August 2018  21:29 UTC
Temperature: 25.0°C (77°F)
Dewpoint: 22.8°C (73°F) [RH = 88%]
Pressure (altimeter): 30.03 inches Hg (1017.0 mb)
Winds: from the WSW (240 degrees) at 9 MPH (8 knots; 4.2 m/s)
Visibility: 3 miles (5 km)
Ceiling: 10000 feet AGL
Clouds: few clouds at 7000 feet AGL
broken clouds at 10000 feet AGL
overcast cloud deck at 11000 feet AGL
Present Weather: VCTS RA BR  (thunderstorm in vicinity, rain, mist)
KFMY 152129Z 24008KT 3SM VCTS RA BR FEW070 BKN100 OVC110 25/23 A3003 RMK AO2 WSHFT 2040 LTG DSNT ALQDS TSE23 P0007 T02500228

Conditions at: KFMY observed 15 August 2018  21:03 UTC
Temperature: 26.7°C (80°F)
Dewpoint: 21.7°C (71°F) [RH = 74%]
Pressure (altimeter): 30.04 inches Hg (1017.4 mb)
Winds: from the WSW (240 degrees) at 10 MPH (9 knots; 4.7 m/s)
Visibility: 10 or more miles (16+ km)
Ceiling: 6000 feet AGL
Clouds: scattered clouds at 4100 feet AGL
broken clouds at 6000 feet AGL
overcast cloud deck at 12000 feet AGL
Present Weather: -TSRA  (light rain associated with thunderstorm(s))
KFMY 152103Z 24009KT 10SM -TSRA SCT041 BKN060 OVC120 27/22 A3004 RMK AO2 WSHFT 2040 LTG DSNT E-S P0000 T02670217

Conditions at: KFMY observed 15 August 2018  20:55 UTC
Temperature: 25.6°C (78°F)
Dewpoint: 22.8°C (73°F) [RH = 85%]
Pressure (altimeter): 30.04 inches Hg (1017.4 mb)
Winds: from the W (260 degrees) at 15 MPH (13 knots; 6.8 m/s)
Visibility: 2.00 miles (3.22 km)
Ceiling: 5000 feet AGL
Clouds: broken clouds at 5000 feet AGL
broken clouds at 7000 feet AGL
overcast cloud deck at 8500 feet AGL
Present Weather: TSRA  (rain associated with thunderstorm(s))
KFMY 152055Z 26013KT 2SM TSRA BKN050 BKN070 OVC085 26/23 A3004 RMK AO2 WSHFT 2040 LTG DSNT SE AND S P0000 T02560228

Conditions at: KFMY observed 15 August 2018  20:53 UTC
Temperature: 25.6°C (78°F)
Dewpoint: 23.3°C (74°F) [RH = 87%]
Pressure (altimeter): 30.04 inches Hg (1017.4 mb)
[Sea-level pressure: 1017.3 mb]
Winds: from the WSW (240 degrees) at 15 MPH (13 knots; 6.8 m/s)
gusting to 22 MPH (19 knots; 9.9 m/s)
Visibility: 1.75 miles (2.82 km)
Ceiling: 5500 feet AGL
Clouds: broken clouds at 5500 feet AGL
overcast cloud deck at 7000 feet AGL
Present Weather: +TSRA BR  (heavy rain associated with thunderstorm(s), mist)
KFMY 152053Z 24013G19KT 200V260 1 3/4SM +TSRA BR BKN055 OVC070 26/23 A3004 RMK AO2 WSHFT 2036 LTG DSNT SE AND S RAB36 TSB38 SLP173 P0013 60013 T02560233 55009

Conditions at: KFMY observed 15 August 2018  20:49 UTC
Temperature: 27.0°C (81°F)
Dewpoint: 23.0°C (73°F) [RH = 79%]
Pressure (altimeter): 30.04 inches Hg (1017.4 mb)
Winds: from the SW (230 degrees) at 17 MPH (15 knots; 7.8 m/s)
gusting to 22 MPH (19 knots; 9.9 m/s)
Visibility: 1.50 miles (2.41 km)
Ceiling: 5000 feet AGL
Clouds: broken clouds at 5000 feet AGL
overcast cloud deck at 7500 feet AGL
Present Weather: +TSRA  (heavy rain associated with thunderstorm(s))
KFMY 152049Z 23015G19KT 1 1/2SM +TSRA BKN050 OVC075 27/23 A3004 RMK AO2 LTG DSNT SE AND S RAB36 TSB38 P0010

Conditions at: KFMY observed 15 August 2018  20:41 UTC
Temperature: 28.3°C (83°F)
Dewpoint: 23.3°C (74°F) [RH = 74%]
Pressure (altimeter): 30.04 inches Hg (1017.4 mb)
Winds: from the S (190 degrees) at 13 MPH (11 knots; 5.7 m/s)
gusting to 21 MPH (18 knots; 9.4 m/s)
Visibility: 2.50 miles (4.02 km)
Ceiling: 4800 feet AGL
Clouds: broken clouds at 4800 feet AGL
broken clouds at 6000 feet AGL
overcast cloud deck at 7500 feet AGL
Present Weather: +TSRA  (heavy rain associated with thunderstorm(s))
KFMY 152041Z 19011G18KT 2 1/2SM +TSRA BKN048 BKN060 OVC075 28/23 A3004 RMK AO2 LTG DSNT SE AND S RAB36 TSB38 P0002 T02830233

Conditions at: KFMY observed 15 August 2018  19:53 UTC
Temperature: 32.8°C (91°F)
Dewpoint: 20.6°C (69°F) [RH = 49%]
Pressure (altimeter): 30.04 inches Hg (1017.4 mb)
[Sea-level pressure: 1017.3 mb]
Winds: from the E (100 degrees) at 6 MPH (5 knots; 2.6 m/s)
Visibility: 10 or more miles (16+ km)
Ceiling: 5000 feet AGL
Clouds: broken clouds at 5000 feet AGL
Present Weather: no significant weather observed at this time
KFMY 151953Z 10005KT 10SM BKN050 33/21 A3004 RMK AO2 LTG DSNT S SLP173 T03280206